createdAt,value
2019-03-28T00:01:05.558Z,13.20
2019-03-28T00:03:36.895Z,13.50
2019-03-28T00:06:07.790Z,13.93
2019-03-28T00:08:38.696Z,12.80
2019-03-28T00:11:10.290Z,13.63
2019-03-28T00:13:41.294Z,14.07
2019-03-28T00:16:12.193Z,14.33
2019-03-28T00:18:43.197Z,13.33
2019-03-28T00:21:14.156Z,13.80
2019-03-28T00:24:02.920Z,13.43
2019-03-28T00:26:33.810Z,13.37
2019-03-28T00:29:04.725Z,13.47
2019-03-28T00:31:35.613Z,13.77
2019-03-28T00:34:06.625Z,14.33
2019-03-28T00:36:37.517Z,15.20
2019-03-28T00:39:08.783Z,15.23
2019-03-28T00:41:39.674Z,14.87
2019-03-28T00:44:10.589Z,13.77
2019-03-28T00:46:42.549Z,15.07
2019-03-28T00:49:13.798Z,14.10
2019-03-28T00:51:44.678Z,14.13
2019-03-28T00:54:15.614Z,13.43
2019-03-28T00:56:47.620Z,13.83
2019-03-28T00:59:18.725Z,14.53
2019-03-28T01:01:49.613Z,14.97
2019-03-28T01:04:20.541Z,13.80
2019-03-28T01:06:51.429Z,14.03
2019-03-28T01:09:22.338Z,14.20
2019-03-28T01:11:53.234Z,13.63
2019-03-28T01:14:24.149Z,13.97
2019-03-28T01:16:56.121Z,13.73
2019-03-28T01:19:28.212Z,14.03
2019-03-28T01:21:59.093Z,14.10
2019-03-28T01:24:30.513Z,14.37
2019-03-28T01:27:01.523Z,14.53
2019-03-28T01:29:32.489Z,14.43
2019-03-28T01:32:03.386Z,13.63
2019-03-28T01:34:34.301Z,14.50
2019-03-28T01:37:05.180Z,13.97
2019-03-28T01:39:36.097Z,15.17
2019-03-28T01:42:06.981Z,13.80
2019-03-28T01:44:37.985Z,13.33
2019-03-28T01:47:08.878Z,14.50
2019-03-28T01:49:39.781Z,15.53
2019-03-28T01:52:10.672Z,16.17
2019-03-28T01:54:41.677Z,16.13
2019-03-28T01:57:12.962Z,16.07
2019-03-28T01:59:44.171Z,15.83
2019-03-28T02:02:15.089Z,15.53
2019-03-28T02:04:46.021Z,17.03
2019-03-28T02:07:16.912Z,16.50
2019-03-28T02:09:47.832Z,16.33
2019-03-28T02:12:18.721Z,16.73
2019-03-28T02:14:49.732Z,17.97
2019-03-28T02:17:20.622Z,18.83
2019-03-28T02:19:51.589Z,17.83
2019-03-28T02:22:22.485Z,17.93
2019-03-28T02:24:53.441Z,18.87
2019-03-28T02:27:24.771Z,18.33
2019-03-28T02:29:55.950Z,18.53
2019-03-28T02:32:26.846Z,17.17
2019-03-28T02:34:57.766Z,19.03
2019-03-28T02:37:28.661Z,18.67
2019-03-28T02:39:59.567Z,18.83
2019-03-28T02:42:30.453Z,18.57
2019-03-28T02:45:01.359Z,18.33
2019-03-28T02:47:32.257Z,18.07
2019-03-28T02:50:04.719Z,18.53
2019-03-28T02:52:35.627Z,17.13
2019-03-28T02:55:06.854Z,18.27
2019-03-28T02:57:41.819Z,18.47
2019-03-28T03:00:11.482Z,18.97
2019-03-28T03:02:42.372Z,18.03
2019-03-28T03:05:13.301Z,18.83
2019-03-28T03:07:44.200Z,19.20
2019-03-28T03:10:15.496Z,19.43
2019-03-28T03:12:46.376Z,19.43
2019-03-28T03:15:17.342Z,19.33
2019-03-28T03:17:48.230Z,19.83
2019-03-28T03:20:19.162Z,20.10
2019-03-28T03:22:50.051Z,18.87
2019-03-28T03:25:21.019Z,18.23
2019-03-28T03:27:58.315Z,18.40
2019-03-28T03:30:24.461Z,18.23
2019-03-28T03:32:55.358Z,19.17
2019-03-28T03:35:26.290Z,18.77
2019-03-28T03:37:57.173Z,18.63
2019-03-28T03:40:28.109Z,18.43
2019-03-28T03:42:59.003Z,18.57
2019-03-28T03:45:29.943Z,18.73
2019-03-28T03:48:00.833Z,19.00
2019-03-28T03:50:33.083Z,19.17
2019-03-28T03:53:03.909Z,18.17
2019-03-28T03:55:34.930Z,18.07
2019-03-28T03:58:15.235Z,19.20
2019-03-28T04:00:38.550Z,18.97
2019-03-28T04:03:09.446Z,19.00
2019-03-28T04:05:40.473Z,17.17
2019-03-28T04:08:11.373Z,18.90
2019-03-28T04:10:42.630Z,18.90
2019-03-28T04:13:14.587Z,18.23
2019-03-28T04:15:45.503Z,19.00
2019-03-28T04:18:16.402Z,18.80
2019-03-28T04:20:47.407Z,19.33
2019-03-28T04:23:18.298Z,18.70
2019-03-28T04:25:49.722Z,18.67
2019-03-28T04:28:31.880Z,17.83
2019-03-28T04:30:53.162Z,17.57
2019-03-28T04:33:24.053Z,16.77
2019-03-28T04:35:55.052Z,18.43
2019-03-28T04:38:25.933Z,17.83
2019-03-28T04:40:56.931Z,18.03
2019-03-28T04:43:27.881Z,18.90
2019-03-28T04:45:58.888Z,18.70
2019-03-28T04:48:30.829Z,17.23
2019-03-28T04:51:01.745Z,18.13
2019-03-28T04:53:32.641Z,17.67
2019-03-28T04:56:04.193Z,18.70
2019-03-28T04:58:44.347Z,17.83
2019-03-28T05:01:07.637Z,17.23
2019-03-28T05:03:38.515Z,17.40
2019-03-28T05:06:09.427Z,16.30
2019-03-28T05:08:40.310Z,17.97
2019-03-28T05:11:11.311Z,17.30
2019-03-28T05:13:42.212Z,17.17
2019-03-28T05:16:13.135Z,16.53
2019-03-28T05:18:44.023Z,15.57
2019-03-28T05:21:14.938Z,16.07
2019-03-28T05:23:45.831Z,16.20
2019-03-28T05:26:16.861Z,15.17
2019-03-28T05:28:57.585Z,16.00
2019-03-28T05:31:21.221Z,14.77
2019-03-28T05:33:52.105Z,15.13
2019-03-28T05:36:23.401Z,14.73
2019-03-28T05:38:54.350Z,16.17
2019-03-28T05:41:26.182Z,15.37
2019-03-28T05:43:57.087Z,14.53
2019-03-28T05:46:28.039Z,14.83
2019-03-28T05:48:58.921Z,15.33
2019-03-28T05:51:29.866Z,14.13
2019-03-28T05:54:00.758Z,13.47
2019-03-28T05:56:31.765Z,13.10
2019-03-28T05:59:10.736Z,14.03
2019-03-28T06:01:35.201Z,14.67
2019-03-28T06:04:06.084Z,14.93
2019-03-28T06:06:37.001Z,14.13
2019-03-28T06:09:08.577Z,13.50
2019-03-28T06:11:39.517Z,14.73
2019-03-28T06:14:10.397Z,14.70
2019-03-28T06:16:41.322Z,15.20
2019-03-28T06:19:12.563Z,14.97
2019-03-28T06:21:43.546Z,15.20
2019-03-28T06:24:14.441Z,14.20
2019-03-28T06:26:45.349Z,14.63
2019-03-28T06:29:23.671Z,15.07
2019-03-28T06:31:55.191Z,15.13
2019-03-28T06:34:21.298Z,16.07
2019-03-28T06:36:52.217Z,18.40
2019-03-28T06:39:23.101Z,20.10
2019-03-28T06:41:54.050Z,18.63
2019-03-28T06:44:24.941Z,18.80
2019-03-28T06:46:55.944Z,18.00
2019-03-28T06:49:26.821Z,20.43
2019-03-28T06:51:57.757Z,19.27
2019-03-28T06:54:28.649Z,18.80
2019-03-28T06:56:59.609Z,19.60
2019-03-28T06:59:37.180Z,18.87
2019-03-28T07:02:03.128Z,19.57
2019-03-28T07:04:35.081Z,19.70
2019-03-28T07:07:06.638Z,20.37
2019-03-28T07:09:37.598Z,19.87
2019-03-28T07:12:08.509Z,21.43
2019-03-28T07:14:39.409Z,21.43
2019-03-28T07:17:10.337Z,21.80
2019-03-28T07:19:41.221Z,22.00
2019-03-28T07:22:12.374Z,19.50
2019-03-28T07:24:43.274Z,18.30
2019-03-28T07:27:14.197Z,18.33
2019-03-28T07:29:50.727Z,17.43
2019-03-28T07:32:17.742Z,17.33
2019-03-28T07:34:48.638Z,17.17
2019-03-28T07:37:19.582Z,16.77
2019-03-28T07:39:50.481Z,16.87
2019-03-28T07:42:21.758Z,16.30
2019-03-28T07:44:53.168Z,15.43
2019-03-28T07:47:24.392Z,16.67
2019-03-28T07:49:55.290Z,16.37
2019-03-28T07:52:27.534Z,16.97
2019-03-28T07:54:58.565Z,16.30
2019-03-28T07:57:29.510Z,16.23
2019-03-28T08:00:04.444Z,15.47
2019-03-28T08:02:34.279Z,16.17
2019-03-28T08:05:06.026Z,14.73
2019-03-28T08:07:44.954Z,14.30
2019-03-28T08:10:10.400Z,15.20
2019-03-28T08:12:41.417Z,14.00
2019-03-28T08:15:12.304Z,14.43
2019-03-28T08:17:43.341Z,14.57
2019-03-28T08:20:16.098Z,15.67
2019-03-28T08:22:47.173Z,16.70
2019-03-28T08:25:18.079Z,14.40
2019-03-28T08:27:49.425Z,14.47
2019-03-28T08:30:28.779Z,13.63
2019-03-28T08:33:00.462Z,14.83
2019-03-28T08:35:32.429Z,16.53
2019-03-28T08:38:03.599Z,14.47
2019-03-28T08:40:39.697Z,15.03
2019-03-28T08:43:09.669Z,15.87
2019-03-28T08:45:40.565Z,14.00
2019-03-28T08:48:11.501Z,14.60
2019-03-28T08:50:42.398Z,15.13
2019-03-28T08:53:13.582Z,14.93
2019-03-28T08:55:44.472Z,15.33
2019-03-28T08:58:15.462Z,13.90
2019-03-28T09:01:06.059Z,14.10
2019-03-28T09:03:37.026Z,15.00
2019-03-28T09:06:07.925Z,14.60
2019-03-28T09:08:38.894Z,14.70
2019-03-28T09:11:09.782Z,13.40
2019-03-28T09:13:40.790Z,15.03
2019-03-28T09:16:11.685Z,15.10
2019-03-28T09:18:42.693Z,15.80
2019-03-28T09:21:13.605Z,15.13
2019-03-28T09:23:44.562Z,14.77
2019-03-28T09:26:15.450Z,13.10
2019-03-28T09:28:46.742Z,13.63
2019-03-28T09:31:20.274Z,14.40
2019-03-28T09:33:50.193Z,13.67
2019-03-28T09:36:21.378Z,13.00
2019-03-28T09:38:53.694Z,13.40
2019-03-28T09:41:24.569Z,13.33
2019-03-28T09:43:56.083Z,13.87
2019-03-28T09:46:27.048Z,14.77
2019-03-28T09:48:57.993Z,14.23
2019-03-28T09:51:28.904Z,15.03
2019-03-28T09:54:00.292Z,13.90
2019-03-28T09:56:31.236Z,15.10
2019-03-28T09:59:02.249Z,14.23
2019-03-28T10:01:33.156Z,14.40
2019-03-28T10:04:06.631Z,12.67
2019-03-28T10:06:37.662Z,13.43
2019-03-28T10:09:09.137Z,13.10
2019-03-28T10:11:40.029Z,12.87
2019-03-28T10:14:11.121Z,12.27
2019-03-28T10:16:42.042Z,10.43
2019-03-28T10:19:12.981Z,12.80
2019-03-28T10:21:44.839Z,11.67
2019-03-28T10:24:15.843Z,10.57
2019-03-28T10:26:46.739Z,12.60
2019-03-28T10:29:18.738Z,11.10
2019-03-28T10:31:50.025Z,11.10
2019-03-28T10:34:21.555Z,11.27
2019-03-28T10:36:52.443Z,11.20
2019-03-28T10:39:23.791Z,10.50
2019-03-28T10:41:54.852Z,11.03
2019-03-28T10:44:26.113Z,10.73
2019-03-28T10:46:57.013Z,10.80
2019-03-28T10:49:27.941Z,10.33
2019-03-28T10:51:59.194Z,9.93
2019-03-28T10:54:30.206Z,10.37
2019-03-28T10:57:13.040Z,10.37
2019-03-28T10:59:33.742Z,9.60
2019-03-28T11:02:05.595Z,9.20
2019-03-28T11:04:36.525Z,8.20
2019-03-28T11:07:07.439Z,8.70
2019-03-28T11:09:38.387Z,9.03
2019-03-28T11:12:09.285Z,8.30
2019-03-28T11:14:41.358Z,7.80
2019-03-28T11:17:12.258Z,7.47
2019-03-28T11:19:43.756Z,8.13
2019-03-28T11:22:14.658Z,7.10
2019-03-28T11:24:46.426Z,7.27
2019-03-28T11:27:17.610Z,6.37
2019-03-28T11:29:48.530Z,7.47
2019-03-28T11:32:19.418Z,6.03
2019-03-28T11:34:50.433Z,7.00
2019-03-28T11:37:26.278Z,7.07
2019-03-28T11:39:53.966Z,7.00
2019-03-28T11:42:24.849Z,7.87
2019-03-28T11:44:56.103Z,7.17
2019-03-28T11:47:26.990Z,6.97
2019-03-28T11:49:57.994Z,7.23
2019-03-28T11:52:28.882Z,7.70
2019-03-28T11:55:00.885Z,8.00
2019-03-28T11:57:31.773Z,6.90
2019-03-28T12:00:02.761Z,7.13
2019-03-28T12:02:33.924Z,7.47
2019-03-28T12:05:05.481Z,7.27
2019-03-28T12:07:36.397Z,8.20
2019-03-28T12:10:09.251Z,7.70
2019-03-28T12:12:40.140Z,6.93
2019-03-28T12:15:11.844Z,7.57
2019-03-28T12:17:42.718Z,7.00
2019-03-28T12:20:13.830Z,7.67
2019-03-28T12:22:44.745Z,7.50
2019-03-28T12:25:15.823Z,7.70
2019-03-28T12:27:46.705Z,8.00
2019-03-28T12:30:20.270Z,7.60
2019-03-28T12:32:51.165Z,8.43
2019-03-28T12:35:22.079Z,8.17
2019-03-28T12:37:52.970Z,8.17
2019-03-28T12:40:23.923Z,8.23
2019-03-28T12:42:54.922Z,8.20
2019-03-28T13:14:31.319Z,6.60
2019-03-28T13:17:02.546Z,6.73
2019-03-28T13:19:33.495Z,7.40
2019-03-28T13:22:05.472Z,6.93
2019-03-28T13:24:36.410Z,6.40
2019-03-28T13:27:07.335Z,7.17
2019-03-28T13:29:38.668Z,6.20
2019-03-28T13:32:09.581Z,5.97
2019-03-28T13:34:40.509Z,6.00
2019-03-28T13:37:11.438Z,6.37
2019-03-28T13:39:42.353Z,6.40
2019-03-28T13:42:14.303Z,6.00
2019-03-28T13:44:45.200Z,5.80
2019-03-28T13:47:16.095Z,6.33
2019-03-28T13:49:47.140Z,6.77
2019-03-28T13:52:18.048Z,6.33
2019-03-28T13:54:49.461Z,6.97
2019-03-28T13:57:21.672Z,6.23
2019-03-28T13:59:53.364Z,6.50
2019-03-28T14:02:24.274Z,6.40
2019-03-28T14:04:55.230Z,7.07
2019-03-28T14:07:26.134Z,7.20
2019-03-28T14:09:57.146Z,6.90
2019-03-28T14:12:28.072Z,6.80
2019-03-28T14:14:59.066Z,6.87
2019-03-28T14:17:29.998Z,6.17
2019-03-28T14:20:00.951Z,6.87
2019-03-28T14:22:31.856Z,6.53
2019-03-28T14:25:02.797Z,7.00
2019-03-28T14:27:34.792Z,6.47
2019-03-28T14:30:09.453Z,7.47
2019-03-28T14:32:52.184Z,6.80
2019-03-28T14:35:12.035Z,7.50
2019-03-28T14:37:43.312Z,7.37
2019-03-28T14:40:14.553Z,7.50
2019-03-28T14:42:45.466Z,7.97
2019-03-28T14:45:16.360Z,7.80
2019-03-28T14:47:47.331Z,8.20
2019-03-28T14:50:22.522Z,7.80
2019-03-28T14:52:53.451Z,8.23
2019-03-28T14:55:24.327Z,7.23
2019-03-28T14:57:55.274Z,7.93
2019-03-28T15:00:47.000Z,8.67
2019-03-28T15:03:26.117Z,8.23
2019-03-28T15:05:51.258Z,8.20
2019-03-28T15:08:25.701Z,8.20
2019-03-28T15:10:56.619Z,8.00
2019-03-28T15:13:27.581Z,8.73
2019-03-28T15:15:58.490Z,8.73
2019-03-28T15:18:30.702Z,9.00
2019-03-28T15:21:01.607Z,10.47
2019-03-28T15:23:32.857Z,10.07
2019-03-28T15:26:03.801Z,10.70
2019-03-28T15:28:35.270Z,10.70
2019-03-28T15:31:06.203Z,10.73
2019-03-28T15:33:39.749Z,11.10
2019-03-28T15:36:09.769Z,11.23
2019-03-28T15:38:40.808Z,10.13
2019-03-28T15:41:11.778Z,10.23
2019-03-28T15:43:42.706Z,10.83
2019-03-28T15:46:13.597Z,10.33
2019-03-28T15:48:44.889Z,9.97
2019-03-28T15:51:15.809Z,9.37
2019-03-28T15:53:46.764Z,9.20
2019-03-28T15:56:17.848Z,9.23
2019-03-28T15:58:49.717Z,9.47
2019-03-28T16:01:20.606Z,8.60
2019-03-28T16:03:53.239Z,8.90
2019-03-28T16:06:24.162Z,7.83
2019-03-28T16:08:55.094Z,7.53
2019-03-28T16:11:25.994Z,7.60
2019-03-28T16:13:56.938Z,7.17
2019-03-28T16:16:28.382Z,6.60
2019-03-28T16:19:01.593Z,6.27
2019-03-28T16:21:32.281Z,6.63
2019-03-28T16:24:03.242Z,6.87
2019-03-28T16:26:34.152Z,6.83
2019-03-28T16:29:05.513Z,7.00
2019-03-28T16:31:36.461Z,7.00
2019-03-28T16:34:07.681Z,6.93
2019-03-28T16:36:38.622Z,6.10
2019-03-28T16:39:09.587Z,5.83
2019-03-28T16:41:42.093Z,7.17
2019-03-28T16:44:13.057Z,7.37
2019-03-28T16:46:45.031Z,7.60
2019-03-28T16:49:16.399Z,8.13
2019-03-28T16:51:47.365Z,7.20
2019-03-28T16:54:18.319Z,7.90
2019-03-28T16:56:49.279Z,7.30
2019-03-28T16:59:20.311Z,7.03
2019-03-28T17:01:51.211Z,7.73
2019-03-28T17:04:22.933Z,8.00
2019-03-28T17:06:55.242Z,8.50
2019-03-28T17:09:27.310Z,8.57
2019-03-28T17:11:58.276Z,9.73
2019-03-28T17:14:30.378Z,9.47
2019-03-28T17:17:01.270Z,9.20
2019-03-28T17:19:32.210Z,10.60
2019-03-28T17:22:03.446Z,9.43
2019-03-28T17:24:35.135Z,9.67
2019-03-28T17:27:06.061Z,9.50
2019-03-28T17:29:37.026Z,9.70
2019-03-28T17:32:08.207Z,9.67
2019-03-28T17:34:40.114Z,9.30
2019-03-28T17:37:11.011Z,10.43
2019-03-28T17:39:41.980Z,10.30
2019-03-28T17:42:13.953Z,9.67
2019-03-28T17:44:44.922Z,10.80
2019-03-28T17:47:15.834Z,11.53
2019-03-28T17:49:47.134Z,11.13
2019-03-28T17:52:18.030Z,12.07
2019-03-28T17:54:48.970Z,12.97
2019-03-28T17:57:19.881Z,12.20
2019-03-28T17:59:50.822Z,12.13
2019-03-28T18:02:40.501Z,12.67
2019-03-28T18:05:15.246Z,12.77
2019-03-28T18:07:44.090Z,12.83
2019-03-28T18:10:16.061Z,12.77
2019-03-28T18:12:48.353Z,12.87
2019-03-28T18:15:19.439Z,12.97
2019-03-28T18:17:51.022Z,13.57
2019-03-28T18:20:22.907Z,12.97
2019-03-28T18:22:53.829Z,14.23
2019-03-28T18:25:24.790Z,13.40
2019-03-28T18:27:55.706Z,14.03
2019-03-28T18:30:26.777Z,12.37
2019-03-28T18:32:57.698Z,12.93
2019-03-28T18:35:28.739Z,13.20
2019-03-28T18:37:59.665Z,12.90
2019-03-28T18:40:31.154Z,10.97
2019-03-28T18:43:02.069Z,11.03
2019-03-28T18:45:33.996Z,10.60
2019-03-28T18:48:05.011Z,10.77
2019-03-28T18:50:36.060Z,10.97
2019-03-28T18:53:06.946Z,10.00
2019-03-28T18:55:38.211Z,9.63
2019-03-28T18:58:09.129Z,9.80
2019-03-28T19:00:40.161Z,9.97
2019-03-28T19:03:11.060Z,8.87
2019-03-28T19:05:42.073Z,9.10
2019-03-28T19:08:12.977Z,8.33
2019-03-28T19:11:03.931Z,8.40
2019-03-28T19:13:34.993Z,9.37
2019-03-28T19:16:06.042Z,7.93
2019-03-28T19:18:36.942Z,8.10
2019-03-28T19:21:07.908Z,8.03
2019-03-28T19:23:38.842Z,8.27
2019-03-28T19:26:11.012Z,8.60
2019-03-28T19:28:42.175Z,8.03
2019-03-28T19:31:13.126Z,7.13
2019-03-28T19:33:44.042Z,7.90
2019-03-28T19:36:15.599Z,7.73
2019-03-28T19:38:47.105Z,6.97
2019-03-28T19:41:18.131Z,7.27
2019-03-28T19:43:49.843Z,7.93
2019-03-28T19:46:20.813Z,7.90
2019-03-28T19:48:51.746Z,7.37
2019-03-28T19:51:22.753Z,7.73
2019-03-28T19:53:53.658Z,7.20
2019-03-28T19:56:24.623Z,8.17
2019-03-28T19:58:57.356Z,6.87
2019-03-28T20:01:28.247Z,7.40
2019-03-28T20:03:59.162Z,7.97
2019-03-28T20:06:30.086Z,7.07
2019-03-28T20:09:00.990Z,7.87
2019-03-28T20:11:33.936Z,7.33
2019-03-28T20:14:06.441Z,7.50
2019-03-28T20:16:37.402Z,7.83
2019-03-28T20:19:08.365Z,8.43
2019-03-28T20:21:39.342Z,8.10
2019-03-28T20:24:10.252Z,8.97
2019-03-28T20:26:41.657Z,9.67
2019-03-28T20:29:12.565Z,8.97
2019-03-28T20:31:43.690Z,9.67
2019-03-28T20:34:14.639Z,10.03
2019-03-28T20:36:45.663Z,9.97
2019-03-28T20:39:16.578Z,10.40
2019-03-28T20:41:47.534Z,11.27
2019-03-28T20:44:19.010Z,10.70
2019-03-28T20:46:50.123Z,11.07
2019-03-28T20:49:21.049Z,10.73
2019-03-28T20:51:52.101Z,11.50
2019-03-28T20:54:23.708Z,12.50
2019-03-28T20:56:57.767Z,11.70
2019-03-28T20:59:27.169Z,11.43
2019-03-28T21:01:58.142Z,11.63
2019-03-28T21:04:31.728Z,11.47
2019-03-28T21:07:01.717Z,11.13
2019-03-28T21:09:32.653Z,10.27
2019-03-28T21:12:03.631Z,12.03
2019-03-28T21:14:35.614Z,12.47
2019-03-28T21:17:06.654Z,11.73
2019-03-28T21:19:37.696Z,13.57
2019-03-28T21:22:08.702Z,13.17
2019-03-28T21:24:39.602Z,13.07
2019-03-28T21:27:10.534Z,12.30
2019-03-28T21:29:48.755Z,13.07
2019-03-28T21:32:14.707Z,19.13
2019-03-28T21:34:46.858Z,18.73
2019-03-28T21:37:18.178Z,17.67
2019-03-28T21:39:49.098Z,20.03
2019-03-28T21:42:20.041Z,23.43
2019-03-28T21:44:51.321Z,19.57
2019-03-28T21:47:23.358Z,17.80
2019-03-28T21:49:54.267Z,16.50
2019-03-28T21:52:25.204Z,17.20
2019-03-28T21:54:56.622Z,17.63
2019-03-28T21:57:27.561Z,18.53
2019-03-28T21:59:58.478Z,19.30
2019-03-28T22:02:29.517Z,20.43
2019-03-28T22:05:01.285Z,18.50
2019-03-28T22:07:33.644Z,18.53
2019-03-28T22:10:08.348Z,15.93
2019-03-28T22:12:37.667Z,17.63
2019-03-28T22:15:08.973Z,18.03
2019-03-28T22:17:39.951Z,17.37
2019-03-28T22:20:11.038Z,18.17
2019-03-28T22:22:43.527Z,18.07
2019-03-28T22:25:14.689Z,19.20
2019-03-28T22:27:47.401Z,18.93
2019-03-28T22:30:19.582Z,19.57
2019-03-28T22:32:50.542Z,20.60
2019-03-28T22:35:21.461Z,20.83
2019-03-28T22:37:52.425Z,20.67
2019-03-28T22:40:24.405Z,20.53
2019-03-28T22:42:55.718Z,22.10
2019-03-28T22:45:26.725Z,22.87
2019-03-28T22:48:10.081Z,22.60
2019-03-28T22:50:33.415Z,21.97
2019-03-28T22:53:04.381Z,21.03
2019-03-28T22:55:35.290Z,23.03
2019-03-28T22:58:08.063Z,23.40
2019-03-28T23:00:42.606Z,22.80
2019-03-28T23:03:16.773Z,22.80
2019-03-28T23:05:47.688Z,22.07
2019-03-28T23:08:18.640Z,22.57
2019-03-28T23:10:49.535Z,23.13
2019-03-28T23:13:20.491Z,24.37
2019-03-28T23:15:53.021Z,24.83
2019-03-28T23:18:23.984Z,23.87
2019-03-28T23:20:54.961Z,23.83
2019-03-28T23:23:26.226Z,25.87
2019-03-28T23:25:57.214Z,26.03
2019-03-28T23:28:28.238Z,26.83
2019-03-28T23:30:59.205Z,26.57
2019-03-28T23:33:30.293Z,25.50
2019-03-28T23:36:01.829Z,27.33
2019-03-28T23:38:32.862Z,25.40
2019-03-28T23:41:03.786Z,25.77
2019-03-28T23:43:35.845Z,26.10
2019-03-28T23:46:07.038Z,26.43
2019-03-28T23:48:37.978Z,24.63
2019-03-28T23:51:09.222Z,25.37
2019-03-28T23:53:40.178Z,25.20
2019-03-28T23:56:11.078Z,25.80
2019-03-28T23:58:42.006Z,25.80
